sensor_id;sensor_type;location;lat;lon;timestamp;P1;durP1;ratioP1;P2;durP2;ratioP2
2129;SDS011;1071;52.544;13.374;2023-06-22T00:00:19;12.87;;;11.87;;
2129;SDS011;1071;52.544;13.374;2023-06-22T00:02:50;13.17;;;12.07;;
2129;SDS011;1071;52.544;13.374;2023-06-22T00:05:17;16.03;;;14.63;;
2129;SDS011;1071;52.544;13.374;2023-06-22T00:07:44;12.10;;;11.10;;
2129;SDS011;1071;52.544;13.374;2023-06-22T00:10:11;14.90;;;13.80;;
2129;SDS011;1071;52.544;13.374;2023-06-22T00:12:38;15.90;;;14.53;;
2129;SDS011;1071;52.544;13.374;2023-06-22T00:15:05;15.87;;;14.70;;
2129;SDS011;1071;52.544;13.374;2023-06-22T00:17:34;14.47;;;13.27;;
2129;SDS011;1071;52.544;13.374;2023-06-22T00:20:01;13.10;;;12.10;;
2129;SDS011;1071;52.544;13.374;2023-06-22T00:22:35;13.83;;;12.73;;
2129;SDS011;1071;52.544;13.374;2023-06-22T00:25:05;13.43;;;12.43;;
2129;SDS011;1071;52.544;13.374;2023-06-22T00:27:33;13.27;;;12.13;;
2129;SDS011;1071;52.544;13.374;2023-06-22T00:30:01;15.17;;;13.77;;
2129;SDS011;1071;52.544;13.374;2023-06-22T00:32:33;14.47;;;13.17;;
2129;SDS011;1071;52.544;13.374;2023-06-22T00:35:01;17.40;;;15.87;;
2129;SDS011;1071;52.544;13.374;2023-06-22T00:37:28;14.97;;;13.87;;
2129;SDS011;1071;52.544;13.374;2023-06-22T00:39:55;12.33;;;11.43;;
2129;SDS011;1071;52.544;13.374;2023-06-22T00:42:23;15.93;;;14.50;;
2129;SDS011;1071;52.544;13.374;2023-06-22T00:44:50;13.30;;;12.30;;
2129;SDS011;1071;52.544;13.374;2023-06-22T00:47:17;16.80;;;15.50;;
2129;SDS011;1071;52.544;13.374;2023-06-22T00:49:46;14.33;;;13.23;;
2129;SDS011;1071;52.544;13.374;2023-06-22T00:52:15;14.60;;;13.40;;
2129;SDS011;1071;52.544;13.374;2023-06-22T00:54:46;12.37;;;11.47;;
2129;SDS011;1071;52.544;13.374;2023-06-22T00:57:15;13.97;;;12.87;;
2129;SDS011;1071;52.544;13.374;2023-06-22T00:59:43;13.70;;;12.63;;
2129;SDS011;1071;52.544;13.374;2023-06-22T01:02:10;12.37;;;11.37;;
2129;SDS011;1071;52.544;13.374;2023-06-22T01:04:40;11.23;;;10.43;;
2129;SDS011;1071;52.544;13.374;2023-06-22T01:07:10;12.00;;;11.10;;
2129;SDS011;1071;52.544;13.374;2023-06-22T01:09:49;14.33;;;13.13;;
2129;SDS011;1071;52.544;13.374;2023-06-22T01:12:23;14.23;;;12.70;;
2129;SDS011;1071;52.544;13.374;2023-06-22T01:15:01;13.07;;;12.07;;
2129;SDS011;1071;52.544;13.374;2023-06-22T01:17:37;12.37;;;11.10;;
2129;SDS011;1071;52.544;13.374;2023-06-22T01:20:09;14.90;;;13.40;;
2129;SDS011;1071;52.544;13.374;2023-06-22T01:22:44;12.60;;;11.67;;
2129;SDS011;1071;52.544;13.374;2023-06-22T01:25:26;14.53;;;12.73;;
2129;SDS011;1071;52.544;13.374;2023-06-22T01:28:03;13.03;;;12.03;;
2129;SDS011;1071;52.544;13.374;2023-06-22T01:30:42;14.30;;;13.13;;
2129;SDS011;1071;52.544;13.374;2023-06-22T01:33:13;14.47;;;13.37;;
2129;SDS011;1071;52.544;13.374;2023-06-22T01:35:41;12.83;;;11.73;;
2129;SDS011;1071;52.544;13.374;2023-06-22T01:38:11;13.73;;;12.50;;
2129;SDS011;1071;52.544;13.374;2023-06-22T01:40:39;12.23;;;11.13;;
2129;SDS011;1071;52.544;13.374;2023-06-22T01:43:07;14.70;;;13.50;;
2129;SDS011;1071;52.544;13.374;2023-06-22T01:45:34;13.70;;;12.53;;
2129;SDS011;1071;52.544;13.374;2023-06-22T01:48:07;13.47;;;12.17;;
2129;SDS011;1071;52.544;13.374;2023-06-22T01:50:34;13.83;;;12.57;;
2129;SDS011;1071;52.544;13.374;2023-06-22T01:53:01;13.60;;;12.50;;
2129;SDS011;1071;52.544;13.374;2023-06-22T01:55:30;13.63;;;12.63;;
2129;SDS011;1071;52.544;13.374;2023-06-22T01:57:57;13.80;;;12.70;;
2129;SDS011;1071;52.544;13.374;2023-06-22T02:00:24;13.93;;;12.73;;
2129;SDS011;1071;52.544;13.374;2023-06-22T02:02:57;13.57;;;12.47;;
2129;SDS011;1071;52.544;13.374;2023-06-22T02:05:31;15.13;;;13.60;;
2129;SDS011;1071;52.544;13.374;2023-06-22T02:08:05;14.37;;;13.27;;
2129;SDS011;1071;52.544;13.374;2023-06-22T02:10:36;13.83;;;12.77;;
2129;SDS011;1071;52.544;13.374;2023-06-22T02:13:06;16.13;;;14.70;;
2129;SDS011;1071;52.544;13.374;2023-06-22T02:15:34;13.77;;;12.60;;
2129;SDS011;1071;52.544;13.374;2023-06-22T02:18:02;13.87;;;12.77;;
2129;SDS011;1071;52.544;13.374;2023-06-22T02:20:32;16.00;;;14.50;;
2129;SDS011;1071;52.544;13.374;2023-06-22T02:22:59;16.33;;;14.93;;
2129;SDS011;1071;52.544;13.374;2023-06-22T02:25:26;14.70;;;13.30;;
2129;SDS011;1071;52.544;13.374;2023-06-22T02:27:53;15.70;;;14.40;;
2129;SDS011;1071;52.544;13.374;2023-06-22T02:30:20;17.10;;;15.37;;
2129;SDS011;1071;52.544;13.374;2023-06-22T02:32:47;16.80;;;15.30;;
2129;SDS011;1071;52.544;13.374;2023-06-22T02:35:22;15.90;;;14.50;;
2129;SDS011;1071;52.544;13.374;2023-06-22T02:37:53;15.40;;;14.00;;
2129;SDS011;1071;52.544;13.374;2023-06-22T02:40:22;18.00;;;16.40;;
2129;SDS011;1071;52.544;13.374;2023-06-22T02:42:49;19.97;;;18.27;;
2129;SDS011;1071;52.544;13.374;2023-06-22T02:45:16;18.63;;;17.00;;
2129;SDS011;1071;52.544;13.374;2023-06-22T02:47:44;16.90;;;15.50;;
2129;SDS011;1071;52.544;13.374;2023-06-22T02:50:12;16.97;;;15.47;;
2129;SDS011;1071;52.544;13.374;2023-06-22T02:52:42;17.70;;;16.20;;
2129;SDS011;1071;52.544;13.374;2023-06-22T02:55:13;19.83;;;18.17;;
2129;SDS011;1071;52.544;13.374;2023-06-22T02:57:40;17.23;;;15.90;;
2129;SDS011;1071;52.544;13.374;2023-06-22T03:00:16;18.00;;;16.50;;
2129;SDS011;1071;52.544;13.374;2023-06-22T03:03:00;20.60;;;18.80;;
2129;SDS011;1071;52.544;13.374;2023-06-22T03:05:28;16.73;;;15.33;;
2129;SDS011;1071;52.544;13.374;2023-06-22T03:07:57;15.80;;;14.40;;
2129;SDS011;1071;52.544;13.374;2023-06-22T03:10:26;18.13;;;16.60;;
2129;SDS011;1071;52.544;13.374;2023-06-22T03:12:53;17.37;;;15.70;;
2129;SDS011;1071;52.544;13.374;2023-06-22T03:15:21;18.23;;;16.83;;
2129;SDS011;1071;52.544;13.374;2023-06-22T03:17:48;17.07;;;15.67;;
2129;SDS011;1071;52.544;13.374;2023-06-22T03:20:18;16.53;;;15.23;;
2129;SDS011;1071;52.544;13.374;2023-06-22T03:22:45;21.97;;;18.70;;
2129;SDS011;1071;52.544;13.374;2023-06-22T03:25:13;19.17;;;17.27;;
2129;SDS011;1071;52.544;13.374;2023-06-22T03:27:43;16.67;;;15.10;;
2129;SDS011;1071;52.544;13.374;2023-06-22T03:30:11;19.63;;;17.77;;
2129;SDS011;1071;52.544;13.374;2023-06-22T03:32:39;18.87;;;17.23;;
2129;SDS011;1071;52.544;13.374;2023-06-22T03:35:06;17.20;;;15.43;;
2129;SDS011;1071;52.544;13.374;2023-06-22T03:37:33;15.53;;;14.13;;
2129;SDS011;1071;52.544;13.374;2023-06-22T03:40:01;15.23;;;13.73;;
2129;SDS011;1071;52.544;13.374;2023-06-22T03:42:33;14.30;;;13.00;;
2129;SDS011;1071;52.544;13.374;2023-06-22T03:45:02;13.87;;;12.57;;
2129;SDS011;1071;52.544;13.374;2023-06-22T03:47:29;14.87;;;13.53;;
2129;SDS011;1071;52.544;13.374;2023-06-22T03:49:57;14.20;;;13.00;;
2129;SDS011;1071;52.544;13.374;2023-06-22T03:52:24;14.83;;;13.67;;
2129;SDS011;1071;52.544;13.374;2023-06-22T03:54:54;14.90;;;13.57;;
2129;SDS011;1071;52.544;13.374;2023-06-22T03:57:21;13.57;;;12.40;;
2129;SDS011;1071;52.544;13.374;2023-06-22T03:59:49;12.00;;;10.97;;
2129;SDS011;1071;52.544;13.374;2023-06-22T04:02:18;12.83;;;11.67;;
2129;SDS011;1071;52.544;13.374;2023-06-22T04:04:45;12.23;;;11.00;;
2129;SDS011;1071;52.544;13.374;2023-06-22T04:07:12;11.50;;;10.40;;
2129;SDS011;1071;52.544;13.374;2023-06-22T04:09:41;11.33;;;10.43;;
2129;SDS011;1071;52.544;13.374;2023-06-22T04:12:10;11.50;;;10.60;;
2129;SDS011;1071;52.544;13.374;2023-06-22T04:14:39;11.00;;;10.10;;
2129;SDS011;1071;52.544;13.374;2023-06-22T04:17:12;12.57;;;11.20;;
2129;SDS011;1071;52.544;13.374;2023-06-22T04:19:41;12.83;;;11.73;;
2129;SDS011;1071;52.544;13.374;2023-06-22T04:22:09;10.57;;;9.77;;
2129;SDS011;1071;52.544;13.374;2023-06-22T04:24:37;13.20;;;12.00;;
2129;SDS011;1071;52.544;13.374;2023-06-22T04:27:04;11.63;;;10.63;;
2129;SDS011;1071;52.544;13.374;2023-06-22T04:29:32;13.77;;;12.47;;
2129;SDS011;1071;52.544;13.374;2023-06-22T04:31:59;12.20;;;11.20;;
2129;SDS011;1071;52.544;13.374;2023-06-22T04:34:28;10.87;;;9.83;;
2129;SDS011;1071;52.544;13.374;2023-06-22T04:36:57;12.33;;;11.30;;
2129;SDS011;1071;52.544;13.374;2023-06-22T04:39:26;10.27;;;9.47;;
2129;SDS011;1071;52.544;13.374;2023-06-22T04:41:54;11.60;;;10.50;;
2129;SDS011;1071;52.544;13.374;2023-06-22T04:44:25;9.83;;;9.03;;
2129;SDS011;1071;52.544;13.374;2023-06-22T04:46:52;9.73;;;8.97;;
2129;SDS011;1071;52.544;13.374;2023-06-22T04:49:25;9.63;;;8.73;;
2129;SDS011;1071;52.544;13.374;2023-06-22T04:51:59;9.60;;;8.73;;
2129;SDS011;1071;52.544;13.374;2023-06-22T04:54:26;8.47;;;7.77;;
2129;SDS011;1071;52.544;13.374;2023-06-22T04:56:53;8.60;;;7.80;;
2129;SDS011;1071;52.544;13.374;2023-06-22T04:59:22;10.60;;;8.80;;
2129;SDS011;1071;52.544;13.374;2023-06-22T05:01:53;8.70;;;7.83;;
2129;SDS011;1071;52.544;13.374;2023-06-22T05:04:20;8.50;;;7.70;;
2129;SDS011;1071;52.544;13.374;2023-06-22T05:06:48;6.90;;;6.40;;
2129;SDS011;1071;52.544;13.374;2023-06-22T05:09:16;7.97;;;7.30;;
2129;SDS011;1071;52.544;13.374;2023-06-22T05:11:43;6.97;;;6.47;;
2129;SDS011;1071;52.544;13.374;2023-06-22T05:14:12;7.47;;;6.73;;
2129;SDS011;1071;52.544;13.374;2023-06-22T05:16:46;7.43;;;6.73;;
2129;SDS011;1071;52.544;13.374;2023-06-22T05:19:13;7.73;;;7.03;;
2129;SDS011;1071;52.544;13.374;2023-06-22T05:21:42;8.07;;;7.37;;
2129;SDS011;1071;52.544;13.374;2023-06-22T05:24:09;7.37;;;6.77;;
2129;SDS011;1071;52.544;13.374;2023-06-22T05:26:38;7.80;;;7.10;;
2129;SDS011;1071;52.544;13.374;2023-06-22T05:29:05;6.47;;;5.97;;
2129;SDS011;1071;52.544;13.374;2023-06-22T05:31:33;8.47;;;6.17;;
2129;SDS011;1071;52.544;13.374;2023-06-22T05:34:12;5.93;;;5.43;;
2129;SDS011;1071;52.544;13.374;2023-06-22T05:36:39;6.07;;;5.57;;
2129;SDS011;1071;52.544;13.374;2023-06-22T05:39:11;5.70;;;5.20;;
2129;SDS011;1071;52.544;13.374;2023-06-22T05:41:44;7.10;;;6.10;;
2129;SDS011;1071;52.544;13.374;2023-06-22T05:44:12;6.23;;;5.47;;
2129;SDS011;1071;52.544;13.374;2023-06-22T05:46:46;7.90;;;5.77;;
2129;SDS011;1071;52.544;13.374;2023-06-22T05:49:14;6.47;;;5.87;;
2129;SDS011;1071;52.544;13.374;2023-06-22T05:51:41;5.00;;;4.60;;
2129;SDS011;1071;52.544;13.374;2023-06-22T05:54:11;5.57;;;4.97;;
2129;SDS011;1071;52.544;13.374;2023-06-22T05:56:40;5.60;;;4.50;;
2129;SDS011;1071;52.544;13.374;2023-06-22T05:59:12;5.13;;;4.63;;
2129;SDS011;1071;52.544;13.374;2023-06-22T06:02:19;6.33;;;4.93;;
2129;SDS011;1071;52.544;13.374;2023-06-22T06:04:46;8.30;;;7.63;;
2129;SDS011;1071;52.544;13.374;2023-06-22T06:07:15;5.90;;;5.40;;
2129;SDS011;1071;52.544;13.374;2023-06-22T06:10:02;5.83;;;5.30;;
2129;SDS011;1071;52.544;13.374;2023-06-22T06:12:31;5.87;;;5.37;;
2129;SDS011;1071;52.544;13.374;2023-06-22T06:15:01;6.57;;;5.97;;
2129;SDS011;1071;52.544;13.374;2023-06-22T06:17:29;9.03;;;4.90;;
2129;SDS011;1071;52.544;13.374;2023-06-22T06:19:56;7.77;;;5.17;;
2129;SDS011;1071;52.544;13.374;2023-06-22T06:22:30;6.93;;;5.63;;
2129;SDS011;1071;52.544;13.374;2023-06-22T06:24:57;6.23;;;5.63;;
2129;SDS011;1071;52.544;13.374;2023-06-22T06:27:38;5.67;;;5.27;;
2129;SDS011;1071;52.544;13.374;2023-06-22T06:30:13;8.60;;;5.07;;
2129;SDS011;1071;52.544;13.374;2023-06-22T06:32:42;5.90;;;4.97;;
2129;SDS011;1071;52.544;13.374;2023-06-22T06:35:11;6.73;;;6.13;;
2129;SDS011;1071;52.544;13.374;2023-06-22T06:37:39;16.63;;;7.07;;
2129;SDS011;1071;52.544;13.374;2023-06-22T06:40:09;7.10;;;5.83;;
2129;SDS011;1071;52.544;13.374;2023-06-22T06:42:40;6.40;;;4.77;;
2129;SDS011;1071;52.544;13.374;2023-06-22T06:45:10;5.93;;;5.47;;
2129;SDS011;1071;52.544;13.374;2023-06-22T06:47:41;6.57;;;5.50;;
2129;SDS011;1071;52.544;13.374;2023-06-22T06:50:12;5.77;;;5.23;;
2129;SDS011;1071;52.544;13.374;2023-06-22T06:52:39;5.50;;;5.00;;
2129;SDS011;1071;52.544;13.374;2023-06-22T06:55:08;8.03;;;5.60;;
2129;SDS011;1071;52.544;13.374;2023-06-22T06:57:37;5.60;;;5.10;;
2129;SDS011;1071;52.544;13.374;2023-06-22T07:00:10;8.93;;;8.23;;
2129;SDS011;1071;52.544;13.374;2023-06-22T07:05:37;5.20;;;4.70;;
2129;SDS011;1071;52.544;13.374;2023-06-22T07:08:04;4.57;;;4.27;;
2129;SDS011;1071;52.544;13.374;2023-06-22T07:10:31;6.17;;;5.63;;
2129;SDS011;1071;52.544;13.374;2023-06-22T07:12:58;8.13;;;5.00;;
2129;SDS011;1071;52.544;13.374;2023-06-22T07:15:28;8.40;;;4.30;;
2129;SDS011;1071;52.544;13.374;2023-06-22T07:17:56;5.07;;;4.60;;
2129;SDS011;1071;52.544;13.374;2023-06-22T07:20:28;4.13;;;3.80;;
2129;SDS011;1071;52.544;13.374;2023-06-22T07:22:55;4.87;;;3.60;;
2129;SDS011;1071;52.544;13.374;2023-06-22T07:25:28;5.20;;;4.23;;
2129;SDS011;1071;52.544;13.374;2023-06-22T07:27:59;3.40;;;3.20;;
2129;SDS011;1071;52.544;13.374;2023-06-22T07:30:27;3.77;;;3.43;;
2129;SDS011;1071;52.544;13.374;2023-06-22T07:32:54;5.43;;;3.97;;
2129;SDS011;1071;52.544;13.374;2023-06-22T07:35:29;4.70;;;3.90;;
2129;SDS011;1071;52.544;13.374;2023-06-22T07:37:58;4.00;;;3.70;;
2129;SDS011;1071;52.544;13.374;2023-06-22T07:40:25;5.17;;;4.67;;
2129;SDS011;1071;52.544;13.374;2023-06-22T07:42:53;5.20;;;4.00;;
2129;SDS011;1071;52.544;13.374;2023-06-22T07:45:23;4.30;;;3.90;;
2129;SDS011;1071;52.544;13.374;2023-06-22T07:47:50;6.87;;;6.17;;
2129;SDS011;1071;52.544;13.374;2023-06-22T07:50:18;5.17;;;4.37;;
2129;SDS011;1071;52.544;13.374;2023-06-22T07:52:49;4.30;;;4.00;;
2129;SDS011;1071;52.544;13.374;2023-06-22T07:55:17;4.17;;;3.77;;
2129;SDS011;1071;52.544;13.374;2023-06-22T07:57:46;4.70;;;4.40;;
2129;SDS011;1071;52.544;13.374;2023-06-22T08:00:17;5.00;;;4.70;;
2129;SDS011;1071;52.544;13.374;2023-06-22T08:02:46;5.93;;;4.50;;
2129;SDS011;1071;52.544;13.374;2023-06-22T08:05:13;3.30;;;3.00;;
2129;SDS011;1071;52.544;13.374;2023-06-22T08:07:42;3.67;;;3.37;;
2129;SDS011;1071;52.544;13.374;2023-06-22T08:10:12;3.80;;;3.30;;
2129;SDS011;1071;52.544;13.374;2023-06-22T08:12:41;3.70;;;3.40;;
2129;SDS011;1071;52.544;13.374;2023-06-22T08:15:09;4.17;;;3.50;;
2129;SDS011;1071;52.544;13.374;2023-06-22T08:17:36;4.43;;;4.00;;
2129;SDS011;1071;52.544;13.374;2023-06-22T08:20:04;3.50;;;3.20;;
2129;SDS011;1071;52.544;13.374;2023-06-22T08:22:36;4.87;;;4.37;;
2129;SDS011;1071;52.544;13.374;2023-06-22T08:25:08;6.03;;;4.00;;
2129;SDS011;1071;52.544;13.374;2023-06-22T08:27:37;6.70;;;3.20;;
2129;SDS011;1071;52.544;13.374;2023-06-22T08:30:05;4.60;;;4.17;;
2129;SDS011;1071;52.544;13.374;2023-06-22T08:32:36;5.20;;;4.43;;
2129;SDS011;1071;52.544;13.374;2023-06-22T08:35:07;4.70;;;4.30;;
2129;SDS011;1071;52.544;13.374;2023-06-22T08:37:36;5.10;;;4.23;;
2129;SDS011;1071;52.544;13.374;2023-06-22T08:40:04;3.50;;;3.20;;
2129;SDS011;1071;52.544;13.374;2023-06-22T08:42:35;6.83;;;3.43;;
2129;SDS011;1071;52.544;13.374;2023-06-22T08:45:10;3.60;;;3.33;;
2129;SDS011;1071;52.544;13.374;2023-06-22T08:47:37;3.93;;;3.63;;
2129;SDS011;1071;52.544;13.374;2023-06-22T08:50:05;5.10;;;3.33;;
2129;SDS011;1071;52.544;13.374;2023-06-22T08:52:33;4.40;;;3.83;;
2129;SDS011;1071;52.544;13.374;2023-06-22T08:55:00;3.80;;;3.40;;
2129;SDS011;1071;52.544;13.374;2023-06-22T08:57:31;4.03;;;3.70;;
2129;SDS011;1071;52.544;13.374;2023-06-22T08:59:59;4.80;;;4.13;;
2129;SDS011;1071;52.544;13.374;2023-06-22T09:02:32;5.27;;;4.30;;
2129;SDS011;1071;52.544;13.374;2023-06-22T09:08:35;4.57;;;4.17;;
2129;SDS011;1071;52.544;13.374;2023-06-22T09:11:02;3.70;;;3.40;;
2129;SDS011;1071;52.544;13.374;2023-06-22T09:13:32;4.90;;;4.50;;
2129;SDS011;1071;52.544;13.374;2023-06-22T09:16:08;4.47;;;4.07;;
2129;SDS011;1071;52.544;13.374;2023-06-22T09:18:38;4.10;;;3.80;;
2129;SDS011;1071;52.544;13.374;2023-06-22T09:21:09;4.50;;;3.90;;
2129;SDS011;1071;52.544;13.374;2023-06-22T09:23:48;4.53;;;4.13;;
2129;SDS011;1071;52.544;13.374;2023-06-22T09:26:16;4.33;;;3.93;;
2129;SDS011;1071;52.544;13.374;2023-06-22T09:28:43;6.63;;;4.20;;
2129;SDS011;1071;52.544;13.374;2023-06-22T09:31:11;4.90;;;4.50;;
2129;SDS011;1071;52.544;13.374;2023-06-22T09:33:39;4.50;;;4.10;;
2129;SDS011;1071;52.544;13.374;2023-06-22T09:36:07;4.87;;;4.20;;
2129;SDS011;1071;52.544;13.374;2023-06-22T09:38:51;4.27;;;3.57;;
2129;SDS011;1071;52.544;13.374;2023-06-22T09:41:47;3.77;;;3.43;;
2129;SDS011;1071;52.544;13.374;2023-06-22T09:44:49;5.80;;;3.63;;
2129;SDS011;1071;52.544;13.374;2023-06-22T09:47:19;5.23;;;3.17;;
2129;SDS011;1071;52.544;13.374;2023-06-22T09:49:54;3.60;;;3.30;;
2129;SDS011;1071;52.544;13.374;2023-06-22T09:52:23;4.83;;;3.40;;
2129;SDS011;1071;52.544;13.374;2023-06-22T09:54:51;4.13;;;3.73;;
2129;SDS011;1071;52.544;13.374;2023-06-22T09:57:20;4.13;;;3.73;;
2129;SDS011;1071;52.544;13.374;2023-06-22T09:59:47;4.90;;;4.40;;
2129;SDS011;1071;52.544;13.374;2023-06-22T10:02:13;3.97;;;3.67;;
2129;SDS011;1071;52.544;13.374;2023-06-22T10:04:47;4.07;;;3.77;;
2129;SDS011;1071;52.544;13.374;2023-06-22T10:07:33;4.13;;;3.80;;
2129;SDS011;1071;52.544;13.374;2023-06-22T10:10:05;3.97;;;3.67;;
2129;SDS011;1071;52.544;13.374;2023-06-22T10:12:32;4.10;;;3.70;;
2129;SDS011;1071;52.544;13.374;2023-06-22T10:14:59;3.00;;;2.80;;
2129;SDS011;1071;52.544;13.374;2023-06-22T10:17:26;5.10;;;4.00;;
2129;SDS011;1071;52.544;13.374;2023-06-22T10:19:59;4.23;;;3.90;;
2129;SDS011;1071;52.544;13.374;2023-06-22T10:22:36;10.70;;;4.60;;
2129;SDS011;1071;52.544;13.374;2023-06-22T10:25:07;7.10;;;4.77;;
2129;SDS011;1071;52.544;13.374;2023-06-22T10:30:37;4.57;;;4.17;;
2129;SDS011;1071;52.544;13.374;2023-06-22T10:33:06;4.77;;;4.40;;
2129;SDS011;1071;52.544;13.374;2023-06-22T10:35:36;4.73;;;4.33;;
2129;SDS011;1071;52.544;13.374;2023-06-22T10:38:04;5.03;;;4.50;;
2129;SDS011;1071;52.544;13.374;2023-06-22T10:40:32;5.20;;;4.70;;
2129;SDS011;1071;52.544;13.374;2023-06-22T10:43:01;4.30;;;3.90;;
2129;SDS011;1071;52.544;13.374;2023-06-22T10:45:28;4.30;;;4.03;;
2129;SDS011;1071;52.544;13.374;2023-06-22T10:47:57;4.77;;;4.47;;
2129;SDS011;1071;52.544;13.374;2023-06-22T10:50:24;4.77;;;4.47;;
2129;SDS011;1071;52.544;13.374;2023-06-22T10:52:54;5.87;;;5.27;;
2129;SDS011;1071;52.544;13.374;2023-06-22T10:55:21;4.80;;;4.50;;
2129;SDS011;1071;52.544;13.374;2023-06-22T10:57:48;4.23;;;3.97;;
2129;SDS011;1071;52.544;13.374;2023-06-22T11:00:18;4.53;;;4.20;;
2129;SDS011;1071;52.544;13.374;2023-06-22T11:02:46;5.63;;;4.17;;
2129;SDS011;1071;52.544;13.374;2023-06-22T11:05:16;5.00;;;4.00;;
2129;SDS011;1071;52.544;13.374;2023-06-22T11:07:47;4.73;;;4.23;;
2129;SDS011;1071;52.544;13.374;2023-06-22T11:10:16;4.77;;;4.37;;
2129;SDS011;1071;52.544;13.374;2023-06-22T11:12:46;4.67;;;4.20;;
2129;SDS011;1071;52.544;13.374;2023-06-22T11:15:16;5.33;;;4.90;;
2129;SDS011;1071;52.544;13.374;2023-06-22T11:17:55;5.17;;;4.77;;
2129;SDS011;1071;52.544;13.374;2023-06-22T11:20:25;4.97;;;4.47;;
2129;SDS011;1071;52.544;13.374;2023-06-22T11:22:52;4.00;;;3.80;;
2129;SDS011;1071;52.544;13.374;2023-06-22T11:25:21;5.27;;;4.70;;
2129;SDS011;1071;52.544;13.374;2023-06-22T11:27:48;4.70;;;4.40;;
2129;SDS011;1071;52.544;13.374;2023-06-22T11:30:23;5.03;;;4.63;;
2129;SDS011;1071;52.544;13.374;2023-06-22T11:32:52;4.60;;;4.30;;
2129;SDS011;1071;52.544;13.374;2023-06-22T11:35:21;5.67;;;4.60;;
2129;SDS011;1071;52.544;13.374;2023-06-22T11:37:56;5.20;;;4.70;;
2129;SDS011;1071;52.544;13.374;2023-06-22T11:43:21;4.83;;;4.43;;
2129;SDS011;1071;52.544;13.374;2023-06-22T11:45:49;4.40;;;4.10;;
2129;SDS011;1071;52.544;13.374;2023-06-22T11:48:22;4.20;;;3.90;;
2129;SDS011;1071;52.544;13.374;2023-06-22T11:50:50;4.43;;;4.03;;
2129;SDS011;1071;52.544;13.374;2023-06-22T11:53:17;4.70;;;4.30;;
2129;SDS011;1071;52.544;13.374;2023-06-22T11:55:44;5.70;;;5.10;;
2129;SDS011;1071;52.544;13.374;2023-06-22T11:58:17;5.13;;;4.30;;
2129;SDS011;1071;52.544;13.374;2023-06-22T12:00:44;7.70;;;4.50;;
2129;SDS011;1071;52.544;13.374;2023-06-22T12:03:11;4.90;;;4.60;;
2129;SDS011;1071;52.544;13.374;2023-06-22T12:05:41;4.37;;;4.07;;
2129;SDS011;1071;52.544;13.374;2023-06-22T12:08:11;4.50;;;4.20;;
2129;SDS011;1071;52.544;13.374;2023-06-22T12:10:40;4.83;;;4.53;;
2129;SDS011;1071;52.544;13.374;2023-06-22T12:13:09;4.93;;;4.63;;
2129;SDS011;1071;52.544;13.374;2023-06-22T12:15:37;5.20;;;4.80;;
2129;SDS011;1071;52.544;13.374;2023-06-22T12:18:04;5.60;;;4.70;;
2129;SDS011;1071;52.544;13.374;2023-06-22T12:20:31;5.07;;;4.67;;
2129;SDS011;1071;52.544;13.374;2023-06-22T12:23:11;6.67;;;4.90;;
2129;SDS011;1071;52.544;13.374;2023-06-22T12:25:41;5.40;;;4.90;;
2129;SDS011;1071;52.544;13.374;2023-06-22T12:28:11;4.73;;;4.33;;
2129;SDS011;1071;52.544;13.374;2023-06-22T12:30:39;5.87;;;4.20;;
2129;SDS011;1071;52.544;13.374;2023-06-22T12:33:07;4.03;;;3.73;;
2129;SDS011;1071;52.544;13.374;2023-06-22T12:35:43;4.60;;;4.30;;
2129;SDS011;1071;52.544;13.374;2023-06-22T12:38:11;4.27;;;3.97;;
2129;SDS011;1071;52.544;13.374;2023-06-22T12:40:40;4.83;;;4.43;;
2129;SDS011;1071;52.544;13.374;2023-06-22T12:43:07;5.20;;;4.80;;
2129;SDS011;1071;52.544;13.374;2023-06-22T12:45:37;5.43;;;4.93;;
2129;SDS011;1071;52.544;13.374;2023-06-22T12:48:06;7.13;;;5.20;;
2129;SDS011;1071;52.544;13.374;2023-06-22T12:50:33;5.40;;;4.90;;
2129;SDS011;1071;52.544;13.374;2023-06-22T12:53:02;5.30;;;4.80;;
2129;SDS011;1071;52.544;13.374;2023-06-22T12:55:31;4.63;;;4.23;;
2129;SDS011;1071;52.544;13.374;2023-06-22T12:58:04;4.50;;;4.10;;
2129;SDS011;1071;52.544;13.374;2023-06-22T13:00:31;5.23;;;4.83;;
2129;SDS011;1071;52.544;13.374;2023-06-22T13:03:00;4.43;;;3.83;;
2129;SDS011;1071;52.544;13.374;2023-06-22T13:05:30;6.40;;;4.47;;
2129;SDS011;1071;52.544;13.374;2023-06-22T13:07:59;5.00;;;4.60;;
2129;SDS011;1071;52.544;13.374;2023-06-22T13:10:28;5.87;;;4.53;;
2129;SDS011;1071;52.544;13.374;2023-06-22T13:12:56;5.07;;;4.67;;
2129;SDS011;1071;52.544;13.374;2023-06-22T13:15:25;4.70;;;4.40;;
2129;SDS011;1071;52.544;13.374;2023-06-22T13:17:56;5.57;;;5.17;;
2129;SDS011;1071;52.544;13.374;2023-06-22T13:20:23;5.97;;;5.47;;
2129;SDS011;1071;52.544;13.374;2023-06-22T13:22:53;4.93;;;4.53;;
2129;SDS011;1071;52.544;13.374;2023-06-22T13:25:22;5.13;;;4.73;;
2129;SDS011;1071;52.544;13.374;2023-06-22T13:27:55;4.80;;;4.50;;
2129;SDS011;1071;52.544;13.374;2023-06-22T13:30:22;5.10;;;4.70;;
2129;SDS011;1071;52.544;13.374;2023-06-22T13:32:49;5.80;;;5.30;;
2129;SDS011;1071;52.544;13.374;2023-06-22T13:35:16;6.00;;;5.50;;
2129;SDS011;1071;52.544;13.374;2023-06-22T13:37:43;5.77;;;5.33;;
2129;SDS011;1071;52.544;13.374;2023-06-22T13:40:12;7.40;;;5.10;;
2129;SDS011;1071;52.544;13.374;2023-06-22T13:42:39;5.60;;;5.10;;
2129;SDS011;1071;52.544;13.374;2023-06-22T13:45:07;5.30;;;4.87;;
2129;SDS011;1071;52.544;13.374;2023-06-22T13:47:34;6.57;;;5.17;;
2129;SDS011;1071;52.544;13.374;2023-06-22T13:50:01;5.03;;;4.73;;
2129;SDS011;1071;52.544;13.374;2023-06-22T13:52:30;5.80;;;5.40;;
2129;SDS011;1071;52.544;13.374;2023-06-22T13:55:01;5.20;;;4.80;;
2129;SDS011;1071;52.544;13.374;2023-06-22T13:57:37;6.03;;;5.53;;
2129;SDS011;1071;52.544;13.374;2023-06-22T14:00:05;4.87;;;4.53;;
2129;SDS011;1071;52.544;13.374;2023-06-22T14:02:33;5.53;;;5.03;;
2129;SDS011;1071;52.544;13.374;2023-06-22T14:05:06;5.67;;;5.37;;
2129;SDS011;1071;52.544;13.374;2023-06-22T14:07:33;5.60;;;5.20;;
2129;SDS011;1071;52.544;13.374;2023-06-22T14:10:01;5.63;;;5.23;;
2129;SDS011;1071;52.544;13.374;2023-06-22T14:12:29;4.63;;;4.30;;
2129;SDS011;1071;52.544;13.374;2023-06-22T14:14:58;5.23;;;4.83;;
2129;SDS011;1071;52.544;13.374;2023-06-22T14:17:25;5.93;;;5.43;;
2129;SDS011;1071;52.544;13.374;2023-06-22T14:19:52;7.13;;;6.20;;
2129;SDS011;1071;52.544;13.374;2023-06-22T14:22:20;5.30;;;4.90;;
2129;SDS011;1071;52.544;13.374;2023-06-22T14:24:47;5.53;;;5.07;;
2129;SDS011;1071;52.544;13.374;2023-06-22T14:27:14;6.20;;;5.70;;
2129;SDS011;1071;52.544;13.374;2023-06-22T14:29:42;5.80;;;5.40;;
2129;SDS011;1071;52.544;13.374;2023-06-22T14:32:14;5.70;;;5.30;;
2129;SDS011;1071;52.544;13.374;2023-06-22T14:34:50;6.33;;;5.73;;
2129;SDS011;1071;52.544;13.374;2023-06-22T14:37:17;6.80;;;6.30;;
2129;SDS011;1071;52.544;13.374;2023-06-22T14:39:46;5.50;;;5.10;;
2129;SDS011;1071;52.544;13.374;2023-06-22T14:42:20;6.47;;;5.93;;
2129;SDS011;1071;52.544;13.374;2023-06-22T14:44:53;5.93;;;5.43;;
2129;SDS011;1071;52.544;13.374;2023-06-22T14:47:21;5.43;;;5.13;;
2129;SDS011;1071;52.544;13.374;2023-06-22T14:49:48;7.00;;;6.40;;
2129;SDS011;1071;52.544;13.374;2023-06-22T14:52:15;7.00;;;6.30;;
2129;SDS011;1071;52.544;13.374;2023-06-22T14:54:50;5.03;;;4.63;;
2129;SDS011;1071;52.544;13.374;2023-06-22T14:57:26;5.77;;;5.17;;
2129;SDS011;1071;52.544;13.374;2023-06-22T14:59:53;5.50;;;5.20;;
2129;SDS011;1071;52.544;13.374;2023-06-22T15:02:23;5.93;;;5.43;;
2129;SDS011;1071;52.544;13.374;2023-06-22T15:04:53;5.37;;;4.97;;
2129;SDS011;1071;52.544;13.374;2023-06-22T15:07:26;5.13;;;4.73;;
2129;SDS011;1071;52.544;13.374;2023-06-22T15:09:56;5.60;;;5.20;;
2129;SDS011;1071;52.544;13.374;2023-06-22T15:12:31;5.20;;;4.80;;
2129;SDS011;1071;52.544;13.374;2023-06-22T15:15:06;4.90;;;4.60;;
2129;SDS011;1071;52.544;13.374;2023-06-22T15:17:36;5.67;;;5.17;;
2129;SDS011;1071;52.544;13.374;2023-06-22T15:20:04;6.10;;;5.70;;